Flight Track Log - Related Links

Times and Time Zones

All times are in EDT time to prevent confusion due to time zone crossing. See the N3746H flight status page for this flight to view local times or setup timezone preferences in your user account.

Time Position Orientation Groundspeed Altitude Reporting Facility
EDT Latitude Longitude Course Direction KTS MPH feet Rate Location/Type
Fri 11:07:06 AM 40.6667 -73.7500 339° North 192 221 1,400  Level New York TRACON
Fri 11:08:06 AM 40.6667 -73.6500 90° East 256 295 4,300 2,950 Climbing New York TRACON
Fri 11:09:00 AM 40.9308 -73.9961 330° Northwest  Level FlightAware Approximate
Fri 11:09:06 AM 40.7000 -73.5667 62° Northeast 261 300 7,300  Level New York TRACON
Fri 11:10:00 AM 41.0307 -74.0730 331° Northwest  Level FlightAware Approximate
Fri 11:10:06 AM 40.7500 -73.5000 45° Northeast 278 320 10,600  Level New York TRACON
Fri 11:11:00 AM 41.1312 -74.1484 331° Northwest  Level FlightAware Approximate
Fri 11:11:06 AM 40.8167 -73.5500 330° Northwest 335 386 11,300  Level New York TRACON
Fri 11:12:00 AM 41.2306 -74.2236 339° North  Level FlightAware Approximate
Fri 11:12:06 AM 40.9000 -73.6333 323° Northwest 358 412 14,100  Level New York TRACON
Fri 11:13:40 AM 40.9961 -73.7869 310° West 374 430 17,000 1,130 Climbing New York Center
Fri 11:14:40 AM 41.0664 -73.8864 313° West 374 430 17,000 550 Level New York Center
Fri 11:15:40 AM 41.1467 -73.9950 314° West 374 430 18,100 1,686 Climbing New York Center
Fri 11:16:41 AM 41.2231 -74.0950 315° West 379 436 20,400 2,050 Climbing New York Center
Fri 11:17:40 AM 41.2992 -74.2011 314° West 385 443 22,200 1,800 Climbing New York Center
Fri 11:18:41 AM 41.3772 -74.3100 314° West 392 451 24,000 1,721 Climbing New York Center
Fri 11:19:42 AM 41.4400 -74.4350 304° West 403 464 25,700 1,831 Climbing New York Center
Fri 11:20:39 AM 41.5025 -74.5686 302° West 417 480 27,600 1,866 Climbing New York Center
Fri 11:21:41 AM 41.5486 -74.6878 297° West 417 480 29,400 1,707 Climbing New York Center
Fri 11:22:42 AM 41.6044 -74.8214 299° West 417 480 31,100 1,714 Climbing New York Center
Fri 11:23:40 AM 41.6606 -74.9469 301° West 412 474 32,800 1,576 Climbing New York Center
Fri 11:24:40 AM 41.7161 -75.0781 300° West 412 474 34,200 1,190 Climbing New York Center
Fri 11:25:41 AM 41.7733 -75.2181 299° West 404 465 35,200 1,000 Climbing New York Center
Fri 11:26:40 AM 41.8211 -75.3328 299° West 404 465 36,200 857 Climbing New York Center
Fri 11:27:40 AM 41.8767 -75.4589 301° West 404 465 36,900 800 Climbing New York Center
Fri 11:28:40 AM 41.9375 -75.6056 299° West 411 473 37,800 550 Climbing New York Center
Fri 11:29:40 AM 41.9922 -75.7378 299° West 411 473 38,000 99 Climbing New York Center
Fri 11:30:41 AM 42.0472 -75.8675 300° West 411 473 38,000  Level New York Center
Fri 11:32:19 AM 42.1167 -76.0667 295° West 410 472 38,000  Level Toronto Center
Fri 11:32:45 AM 42.1581 -76.1486 304° West 407 468 38,000  Level Cleveland Center
Fri 11:33:45 AM 42.2050 -76.2883 294° West 397 457 38,000  Level Cleveland Center
Fri 11:34:45 AM 42.2475 -76.4258 293° West 404 465 38,000  Level Cleveland Center
Fri 11:35:45 AM 42.2942 -76.5631 295° West 409 471 38,000  Level Cleveland Center
Fri 11:36:45 AM 42.3386 -76.7036 293° West 409 471 38,000  Level Cleveland Center
Fri 11:37:45 AM 42.3808 -76.8417 293° West 409 471 38,000  Level Cleveland Center
Fri 11:38:19 AM 42.4000 -76.8833 302° West 400 460 38,000  Level Toronto Center
Fri 11:38:45 AM 42.4228 -76.9797 288° West 409 471 38,000  Level Cleveland Center
Fri 11:39:45 AM 42.4664 -77.1153 294° West 409 471 38,000  Level Cleveland Center
Fri 11:40:45 AM 42.5100 -77.2536 293° West 409 471 38,000  Level Cleveland Center
Fri 11:41:45 AM 42.5514 -77.3869 293° West 402 463 38,000  Level Cleveland Center
Fri 11:42:45 AM 42.5928 -77.5258 292° West 396 456 38,000  Level Cleveland Center
Fri 11:43:45 AM 42.6336 -77.6594 293° West 391 450 38,000  Level Cleveland Center
Fri 11:44:45 AM 42.6767 -77.7986 293° West 391 450 38,000  Level Cleveland Center
Fri 11:45:45 AM 42.7131 -77.9186 292° West 391 450 38,000  Level Cleveland Center
Fri 11:46:45 AM 42.7536 -78.0525 292° West 391 450 38,000  Level Cleveland Center
Fri 11:47:45 AM 42.7961 -78.1922 293° West 391 450 38,000  Level Cleveland Center
Fri 11:48:45 AM 42.8386 -78.3350 292° West 396 456 38,000  Level Cleveland Center
Fri 11:49:45 AM 42.8786 -78.4725 292° West 396 456 38,000  Level Cleveland Center
Fri 11:50:45 AM 42.9208 -78.6128 292° West 396 456 38,000  Level Cleveland Center
Fri 11:51:45 AM 42.9625 -78.7533 292° West 396 456 38,000  Level Cleveland Center
Fri 11:52:45 AM 43.0064 -78.8911 294° West 396 456 38,000  Level Cleveland Center
Fri 11:53:19 AM 43.0333 -78.9500 302° West 400 460 38,000  Level Toronto Center
Fri 11:54:19 AM 43.0667 -79.1167 285° West 400 460 38,000  Level Toronto Center
Fri 11:56:19 AM 43.1500 -79.3833 293° West 400 460 38,000  Level Toronto Center
Fri 11:57:19 AM 43.2000 -79.5167 297° West 390 449 38,000  Level Toronto Center
Fri 11:58:19 AM 43.2333 -79.6500 289° West 390 449 38,000  Level Toronto Center
Fri 11:59:19 AM 43.2833 -79.8000 295° West 390 449 38,000  Level Toronto Center
Fri 12:00:19 PM 43.3167 -79.9333 289° West 390 449 38,000  Level Toronto Center
Fri 12:01:19 PM 43.3667 -80.0667 297° West 390 449 38,000  Level Toronto Center
Fri 12:02:19 PM 43.4000 -80.2000 289° West 390 449 38,000  Level Toronto Center
Fri 12:03:19 PM 43.4500 -80.3500 295° West 390 449 38,000  Level Toronto Center
Fri 12:04:19 PM 43.4833 -80.4833 289° West 390 449 38,000  Level Toronto Center
Fri 12:05:19 PM 43.5167 -80.6167 289° West 390 449 38,000  Level Toronto Center
Fri 12:06:19 PM 43.5667 -80.7833 293° West 390 449 38,000  Level Toronto Center
Fri 12:07:19 PM 43.5833 -80.9000 281° West 390 449 38,000  Level Toronto Center
Fri 12:08:19 PM 43.6167 -81.0667 285° West 390 449 38,000  Level Toronto Center
Fri 12:09:19 PM 43.6500 -81.2000 289° West 390 449 38,000  Level Toronto Center
Fri 12:10:19 PM 43.6833 -81.3167 292° West 390 449 38,000  Level Toronto Center
Fri 12:11:19 PM 43.7333 -81.4833 293° West 390 449 38,000  Level Toronto Center
Fri 12:12:19 PM 43.7667 -81.6167 289° West 390 449 38,000  Level Toronto Center
Fri 12:13:19 PM 43.8000 -81.7500 289° West 390 449 38,000  Level Toronto Center
Fri 12:14:19 PM 43.8333 -81.9000 287° West 390 449 38,000  Level Toronto Center
Fri 12:16:26 PM 43.9167 -82.2133 290° West 391 450 38,000 -32 Level Minneapolis Center
Fri 12:17:28 PM 43.9408 -82.3592 283° West 391 450 37,900 -48 Descending Minneapolis Center
Fri 12:18:30 PM 43.9461 -82.5100 273° West 390 449 37,900 48 Level Minneapolis Center
Fri 12:19:32 PM 43.9558 -82.6606 275° West 392 451 38,000  Climbing Minneapolis Center
Fri 12:20:34 PM 43.9658 -82.8092 275° West 389 448 37,900 -48 Descending Minneapolis Center
Fri 12:21:36 PM 43.9767 -82.9889 275° West 390 449 37,900 48 Level Minneapolis Center
Fri 12:22:38 PM 43.9883 -83.1381 276° West 390 449 38,000 48 Climbing Minneapolis Center
Fri 12:23:40 PM 43.9986 -83.2883 275° West 391 450 38,000  Level Minneapolis Center
Fri 12:24:42 PM 44.0064 -83.4411 274° West 395 455 38,000  Level Minneapolis Center
Fri 12:25:44 PM 44.0158 -83.5939 275° West 397 457 38,000  Level Minneapolis Center
Fri 12:26:46 PM 44.0250 -83.7478 275° West 399 459 38,000 -48 Level Minneapolis Center
Fri 12:27:48 PM 44.0336 -83.9019 274° West 401 461 37,900  Descending Minneapolis Center
Fri 12:28:50 PM 44.0436 -84.0833 274° West 395 455 38,000 48 Climbing Minneapolis Center
Fri 12:29:52 PM 44.0519 -84.2358 274° West 394 453 38,000  Level Minneapolis Center
Fri 12:30:54 PM 44.0608 -84.3850 275° West 390 449 38,000  Level Minneapolis Center
Fri 12:31:56 PM 44.0694 -84.5361 275° West 391 450 38,000 -48 Level Minneapolis Center
Fri 12:32:58 PM 44.0764 -84.6856 274° West 388 447 37,900  Descending Minneapolis Center
Fri 12:34:30 PM 44.0886 -84.9275 274° West 391 450 38,000 48 Climbing Chicago Center
Fri 12:35:02 PM 44.0922 -85.0181 273° West 392 451 38,000  Level Minneapolis Center
Fri 12:36:04 PM 44.0986 -85.1692 273° West 392 451 38,000  Level Minneapolis Center
Fri 12:37:06 PM 44.1058 -85.3214 274° West 393 452 38,000 -48 Level Minneapolis Center
Fri 12:38:08 PM 44.1128 -85.4733 274° West 392 451 37,900  Descending Minneapolis Center
Fri 12:39:10 PM 44.1192 -85.6231 273° West 390 449 38,000 48 Climbing Minneapolis Center
Fri 12:40:12 PM 44.1253 -85.7742 273° West 389 448 38,000 -48 Level Minneapolis Center
Fri 12:41:14 PM 44.1306 -85.9261 273° West 392 451 37,900  Descending Minneapolis Center
Fri 12:42:16 PM 44.1381 -86.1072 273° West 391 450 38,000 48 Climbing Minneapolis Center
Fri 12:43:18 PM 44.1439 -86.2586 273° West 391 450 38,000  Level Minneapolis Center
Fri 12:44:20 PM 44.1486 -86.4122 273° West 395 455 38,000  Level Minneapolis Center
Fri 12:45:22 PM 44.1544 -86.5650 273° West 396 456 38,000 -48 Level Minneapolis Center
Fri 12:46:24 PM 44.1594 -86.7200 273° West 399 459 37,900  Descending Minneapolis Center
Fri 12:47:26 PM 44.1636 -86.8736 272° West 398 458 38,000 48 Climbing Minneapolis Center
Fri 12:48:28 PM 44.1692 -87.0567 272° West 396 456 38,000 -48 Level Minneapolis Center
Fri 12:49:30 PM 44.1736 -87.2092 272° West 395 455 37,900  Descending Minneapolis Center
Fri 12:50:32 PM 44.1778 -87.3544 272° West 393 452 38,000 48 Climbing Minneapolis Center
Fri 12:51:34 PM 44.1808 -87.5050 272° West 391 450 38,000  Level Minneapolis Center
Fri 12:52:36 PM 44.1858 -87.6797 272° West 389 448 38,000  Level Minneapolis Center
Fri 12:53:38 PM 44.1894 -87.8303 272° West 390 449 38,000  Level Minneapolis Center
Fri 12:54:41 PM 44.1911 -87.9772 271° West 382 440 38,000  Level Minneapolis Center
Fri 12:55:43 PM 44.1950 -88.1269 272° West 386 444 38,000  Level Minneapolis Center
Fri 12:56:45 PM 44.1978 -88.2775 272° West 390 449 38,000  Level Minneapolis Center
Fri 12:57:47 PM 44.2006 -88.4533 271° West 389 448 38,000  Level Minneapolis Center
Fri 12:58:49 PM 44.2028 -88.6044 271° West 391 450 38,000  Level Minneapolis Center
Fri 12:59:51 PM 44.2036 -88.7572 270° West 393 452 38,000  Level Minneapolis Center
Fri 01:00:53 PM 44.2064 -88.9111 271° West 397 457 38,000  Level Minneapolis Center
Fri 01:01:55 PM 44.2072 -89.0636 270° West 396 456 38,000  Level Minneapolis Center
Fri 01:02:57 PM 44.2100 -89.2397 271° West 391 450 38,000  Level Minneapolis Center
Fri 01:03:22 PM 44.2103 -89.2906 270° West 392 451 38,000  Level Minneapolis Center
Fri 01:04:24 PM 44.2117 -89.4458 271° West 398 458 38,000  Level Minneapolis Center
Fri 01:05:26 PM 44.2125 -89.6286 270° West 405 466 38,000  Level Minneapolis Center
Fri 01:06:28 PM 44.2125 -89.7836 270° West 401 461 38,000  Level Minneapolis Center
Fri 01:07:30 PM 44.2142 -89.9419 271° West 407 468 38,000  Level Minneapolis Center
Fri 01:08:32 PM 44.2142 -90.0983 270° West 406 467 38,000  Level Minneapolis Center
Fri 01:09:34 PM 44.2144 -90.2564 270° West 407 468 38,000  Level Minneapolis Center
Fri 01:10:36 PM 44.2136 -90.4408 270° West 407 468 38,000  Level Minneapolis Center
Fri 01:11:38 PM 44.2147 -90.5858 271° West 410 472 38,000  Level Minneapolis Center
Fri 01:12:40 PM 44.2136 -90.7453 269° West 410 472 38,000  Level Minneapolis Center
Fri 01:13:42 PM 44.2125 -90.8983 269° West 408 470 38,000  Level Minneapolis Center
Fri 01:14:44 PM 44.2111 -91.0842 269° West 406 467 38,000  Level Minneapolis Center
Fri 01:15:46 PM 44.2111 -91.2411 270° West 408 470 38,000  Level Minneapolis Center
Fri 01:16:48 PM 44.2094 -91.4033 269° West 407 468 38,000  Level Minneapolis Center
Fri 01:17:50 PM 44.2083 -91.5592 269° West 405 466 38,000  Level Minneapolis Center
Fri 01:18:53 PM 44.2061 -91.7172 269° West 407 468 38,000  Level Minneapolis Center
Fri 01:19:55 PM 44.2044 -91.8747 269° West 408 470 38,000  Level Minneapolis Center
Fri 01:20:57 PM 44.2017 -92.0633 269° West 408 470 38,000  Level Minneapolis Center
Fri 01:21:59 PM 44.1997 -92.2222 269° West 410 472 38,000  Level Minneapolis Center
Fri 01:23:01 PM 44.1967 -92.3817 269° West 412 474 38,000  Level Minneapolis Center
Fri 01:24:03 PM 44.1933 -92.5431 268° West 416 479 38,000  Level Minneapolis Center
Fri 01:25:05 PM 44.1900 -92.7014 268° West 412 474 38,000  Level Minneapolis Center
Fri 01:26:07 PM 44.1867 -92.8631 268° West 416 479 38,000  Level Minneapolis Center
Fri 01:27:09 PM 44.1825 -93.0556 268° West 414 476 38,000  Level Minneapolis Center
Fri 01:28:11 PM 44.1792 -93.2153 268° West 411 473 38,000  Level Minneapolis Center
Fri 01:29:13 PM 44.1739 -93.3758 267° West 412 474 38,000  Level Minneapolis Center
Fri 01:30:15 PM 44.1708 -93.5356 269° West 412 474 38,000  Level Minneapolis Center
Fri 01:31:17 PM 44.1667 -93.6953 268° West 412 474 38,000  Level Minneapolis Center
Fri 01:32:19 PM 44.1611 -93.8547 267° West 413 475 38,000  Level Minneapolis Center
Fri 01:33:21 PM 44.1558 -94.0156 267° West 415 478 38,000  Level Minneapolis Center
Fri 01:34:23 PM 44.1497 -94.2086 268° West 416 479 38,000  Level Minneapolis Center
Fri 01:35:25 PM 44.1444 -94.3719 267° West 421 484 38,000  Level Minneapolis Center
Fri 01:36:27 PM 44.1403 -94.5317 268° West 414 476 38,000  Level Minneapolis Center
Fri 01:37:30 PM 44.1322 -94.6867 266° West 421 484 38,000  Level Minneapolis Center
Fri 01:38:32 PM 44.1250 -94.8819 267° West 422 486 38,000  Level Minneapolis Center
Fri 01:39:34 PM 44.1183 -95.0433 267° West 420 483 38,000  Level Minneapolis Center
Fri 01:40:48 PM 44.1100 -95.2372 267° West 419 482 38,000  Level Minneapolis Center
Fri 01:41:50 PM 44.1036 -95.4006 267° West 422 486 38,000  Level Minneapolis Center
Fri 01:42:52 PM 44.0967 -95.5647 267° West 424 488 38,000  Level Minneapolis Center
Fri 01:43:54 PM 44.0881 -95.7289 266° West 426 490 38,000  Level Minneapolis Center
Fri 01:44:56 PM 44.0775 -95.9247 266° West 422 486 38,000  Level Minneapolis Center
Fri 01:45:59 PM 44.0700 -96.0936 267° West 429 494 38,000  Level Minneapolis Center
Fri 01:47:01 PM 44.0603 -96.2619 265° West 428 493 38,000  Level Minneapolis Center
Fri 01:48:03 PM 44.0525 -96.4283 266° West 426 490 38,000  Level Minneapolis Center
Fri 01:49:05 PM 44.0425 -96.5928 265° West 425 489 38,000  Level Minneapolis Center
Fri 01:50:07 PM 44.0333 -96.7572 266° West 426 490 38,000  Level Minneapolis Center
Fri 01:51:09 PM 44.0247 -96.9231 266° West 429 494 38,000  Level Minneapolis Center
Fri 01:52:11 PM 44.0150 -97.0889 265° West 431 496 38,000  Level Minneapolis Center
Fri 01:53:13 PM 44.0028 -97.2878 265° West 432 497 38,000  Level Minneapolis Center
Fri 01:54:15 PM 43.9925 -97.4531 265° West 431 496 38,000  Level Minneapolis Center
Fri 01:55:17 PM 43.9819 -97.6192 265° West 432 497 38,000  Level Minneapolis Center
Fri 01:56:19 PM 43.9708 -97.7847 265° West 432 497 38,000  Level Minneapolis Center
Fri 01:57:21 PM 43.9603 -97.9503 265° West 432 497 38,000  Level Minneapolis Center
Fri 01:58:23 PM 43.9492 -98.1161 265° West 433 498 38,000  Level Minneapolis Center
Fri 01:59:26 PM 43.9344 -98.3167 264° West 436 502 38,000  Level Minneapolis Center
Fri 02:00:28 PM 43.9242 -98.4844 265° West 437 503 38,000  Level Minneapolis Center
Fri 02:01:30 PM 43.9119 -98.6517 264° West 438 504 38,000  Level Minneapolis Center
Fri 02:02:32 PM 43.8992 -98.8092 264° West 437 503 38,000  Level Minneapolis Center
Fri 02:03:34 PM 43.8839 -99.0094 264° West 435 501 38,000  Level Minneapolis Center
Fri 02:04:36 PM 43.8714 -99.1767 264° West 436 502 38,000  Level Minneapolis Center
Fri 02:05:38 PM 43.8589 -99.3444 264° West 437 503 38,000  Level Minneapolis Center
Fri 02:06:40 PM 43.8447 -99.5114 263° West 437 503 38,000  Level Minneapolis Center
Fri 02:07:42 PM 43.8308 -99.6786 263° West 436 502 38,000  Level Minneapolis Center
Fri 02:08:44 PM 43.8172 -99.8464 264° West 437 503 38,000  Level Minneapolis Center
Fri 02:09:46 PM 43.8031 -100.0133 263° West 437 503 38,000  Level Minneapolis Center
Fri 02:10:48 PM 43.7864 -100.2156 264° West 438 504 38,000  Level Minneapolis Center
Fri 02:11:50 PM 43.7711 -100.3822 263° West 438 504 38,000  Level Minneapolis Center
Fri 02:12:23 PM 43.7656 -100.4472 263° West 437 503 38,000  Level Denver Center
Fri 02:13:25 PM 43.7467 -100.6497 263° West 441 507 38,000  Level Denver Center
Fri 02:13:54 PM 43.7414 -100.7181 264° West 440 506 38,000  Level Minneapolis Center
Fri 02:14:56 PM 43.7261 -100.8861 263° West 440 506 38,000  Level Minneapolis Center
Fri 02:15:58 PM 43.7106 -101.0525 263° West 438 504 38,000  Level Minneapolis Center
Fri 02:17:00 PM 43.6942 -101.2231 262° West 444 511 38,000  Level Minneapolis Center
Fri 02:18:02 PM 43.6736 -101.4244 262° West 443 510 38,000  Level Minneapolis Center
Fri 02:18:35 PM 43.6678 -101.4925 263° West 446 513 38,000  Level Denver Center
Fri 02:19:37 PM 43.6467 -101.6944 262° West 443 510 38,000  Level Denver Center
Fri 02:20:39 PM 43.6331 -101.8308 262° West 448 516 38,000  Level Denver Center
Fri 02:21:42 PM 43.6122 -102.0314 262° West 442 509 38,000  Level Denver Center
Fri 02:22:44 PM 43.5947 -102.2050 262° West 445 512 38,000  Level Denver Center
Fri 02:23:46 PM 43.5783 -102.3667 262° West 447 514 38,000  Level Denver Center
Fri 02:24:48 PM 43.5569 -102.5553 261° West 446 513 38,000  Level Denver Center
Fri 02:25:50 PM 43.5397 -102.7178 262° West 448 516 38,000  Level Denver Center
Fri 02:26:52 PM 43.5189 -102.9072 261° West 449 517 38,000  Level Denver Center
Fri 02:27:54 PM 43.5006 -103.0697 261° West 450 518 38,000  Level Denver Center
Fri 02:28:56 PM 43.4794 -103.2586 261° West 450 518 38,000  Level Denver Center
Fri 02:29:58 PM 43.4611 -103.4217 261° West 451 519 38,000  Level Denver Center
Fri 02:31:00 PM 43.4389 -103.6097 261° West 449 517 38,000  Level Denver Center
Fri 02:32:02 PM 43.4197 -103.7706 261° West 447 514 38,000  Level Denver Center
Fri 02:33:04 PM 43.3969 -103.9586 261° West 448 516 38,000  Level Denver Center
Fri 02:34:06 PM 43.3772 -104.1192 260° West 447 514 38,000  Level Denver Center
Fri 02:35:08 PM 43.3536 -104.3081 260° West 450 518 38,000  Level Denver Center
Fri 02:36:10 PM 43.3342 -104.4697 261° West 450 518 38,000  Level Denver Center
Fri 02:37:12 PM 43.3100 -104.6572 260° West 449 517 38,000  Level Denver Center
Fri 02:38:14 PM 43.2894 -104.8183 260° West 450 518 38,000  Level Denver Center
Fri 02:39:16 PM 43.2661 -105.0044 260° West 446 513 38,000  Level Denver Center
Fri 02:40:19 PM 43.2444 -105.1644 260° West 447 514 38,000  Level Denver Center
Fri 02:41:21 PM 43.2197 -105.3500 260° West 447 514 38,000  Level Denver Center
Fri 02:42:23 PM 43.1992 -105.5092 260° West 445 512 38,000  Level Denver Center
Fri 02:43:25 PM 43.1728 -105.6942 259° West 445 512 38,000  Level Denver Center
Fri 02:44:27 PM 43.1506 -105.8525 259° West 444 511 38,000  Level Denver Center
Fri 02:45:29 PM 43.1250 -106.0389 259° West 447 514 38,000  Level Denver Center
Fri 02:46:30 PM 43.1022 -106.1986 259° West 450 518 38,000  Level Denver Center
Fri 02:47:32 PM 43.0600 -106.3808 252° West 454 522 38,000  Level Denver Center
Fri 02:48:34 PM 43.0122 -106.5319 247° West 454 522 38,000  Level Denver Center
Fri 02:49:36 PM 42.9647 -106.6839 247° West 454 522 38,000  Level Denver Center
Fri 02:50:38 PM 42.9086 -106.8603 247° West 454 522 38,000  Level Denver Center
Fri 02:51:40 PM 42.8614 -107.0114 247° West 454 522 38,000  Level Denver Center
Fri 02:52:42 PM 42.8056 -107.1875 247° West 454 522 38,000  Level Denver Center
Fri 02:53:13 PM 42.7819 -107.2606 246° West 453 521 38,000  Level Salt Lake Center
Fri 02:54:15 PM 42.7250 -107.4364 246° West 454 522 38,000  Level Salt Lake Center
Fri 02:55:48 PM 42.6792 -107.6728 255° West 455 524 38,000  Level Denver Center
Fri 02:56:19 PM 42.6586 -107.7781 255° West 450 518 38,000  Level Salt Lake Center
Fri 02:57:21 PM 42.6294 -107.9375 256° West 454 522 38,000  Level Salt Lake Center
Fri 02:58:23 PM 42.5953 -108.1203 256° West 450 518 38,000  Level Salt Lake Center
Fri 02:59:25 PM 42.5653 -108.2794 256° West 453 521 38,000 -48 Level Salt Lake Center
Fri 03:00:27 PM 42.5308 -108.4647 256° West 456 525 37,900 -484 Descending Salt Lake Center
Fri 03:01:29 PM 42.5011 -108.6236 256° West 455 524 37,000 -968 Descending Salt Lake Center
Fri 03:02:31 PM 42.4650 -108.8072 255° West 453 521 35,900 -968 Descending Salt Lake Center
Fri 03:03:33 PM 42.4347 -108.9675 256° West 458 527 35,000 -919 Descending Salt Lake Center
Fri 03:04:35 PM 42.3969 -109.1556 255° West 464 534 34,000 -484 Descending Salt Lake Center
Fri 03:05:37 PM 42.3656 -109.3147 255° West 462 532 34,000  Level Salt Lake Center
Fri 03:06:39 PM 42.3283 -109.5014 255° West 462 532 34,000  Level Salt Lake Center
Fri 03:07:41 PM 42.2958 -109.6611 255° West 463 533 34,000  Level Salt Lake Center
Fri 03:08:43 PM 42.2636 -109.8211 255° West 465 535 34,000  Level Salt Lake Center
Fri 03:09:44 PM 42.2247 -110.0064 254° West 463 533 34,000 -293 Level Salt Lake Center
Fri 03:10:46 PM 42.1917 -110.1675 255° West 467 537 33,400 -823 Descending Salt Lake Center
Fri 03:11:48 PM 42.1525 -110.3564 254° West 471 542 32,300 -968 Descending Salt Lake Center
Fri 03:12:50 PM 42.1183 -110.5189 254° West 473 544 31,400 -919 Descending Salt Lake Center
Fri 03:13:52 PM 42.0783 -110.7103 254° West 477 549 30,400 -919 Descending Salt Lake Center
Fri 03:14:54 PM 42.0425 -110.8753 254° West 479 551 29,500 -919 Descending Salt Lake Center
Fri 03:15:56 PM 42.0019 -111.0656 254° West 484 557 28,500 -968 Descending Salt Lake Center
Fri 03:16:58 PM 41.9639 -111.2372 253° West 481 554 27,500 -968 Descending Salt Lake Center
Fri 03:18:00 PM 41.9267 -111.4089 254° West 482 555 26,500 -919 Descending Salt Lake Center
Fri 03:19:02 PM 41.8894 -111.5803 254° West 481 554 25,600 -1,016 Descending Salt Lake Center
Fri 03:20:04 PM 41.8425 -111.7856 253° West 483 556 24,400 -1,065 Descending Salt Lake Center
Fri 03:21:06 PM 41.7997 -111.9483 251° West 472 543 23,400 -1,055 Descending Salt Lake Center
Fri 03:21:35 PM 41.7492 -111.9992 217° Southwest 469 540 22,800 -1,574 Descending Salt Lake Center
Fri 03:22:07 PM 41.6897 -112.0258 199° South 465 535 21,800 -2,557 Descending Salt Lake Center
Fri 03:22:36 PM 41.6239 -112.0306 183° South 452 520 20,200 -2,613 Descending Salt Lake Center
Fri 03:23:09 PM 41.5675 -112.0453 191° South 443 510 19,100 -1,180 Descending Salt Lake Center
Fri 03:23:37 PM 41.5053 -112.0514 184° South 437 503 19,000 -97 Descending Salt Lake Center
Fri 03:24:11 PM 41.4506 -112.0656 191° South 424 488 19,000 -197 Level Salt Lake Center
Fri 03:24:38 PM 41.3911 -112.0733 186° South 420 483 18,800 -1,161 Descending Salt Lake Center
Fri 03:25:13 PM 41.3389 -112.0894 193° South 412 474 17,800 -2,557 Descending Salt Lake Center
Fri 03:25:39 PM 41.2758 -112.1011 188° South 404 465 16,200 -2,710 Descending Salt Lake Center
Fri 03:26:15 PM 41.2089 -112.1175 190° South 399 459 15,000 -1,672 Descending Salt Lake Center
Fri 03:26:40 PM 41.1647 -112.1275 190° South 394 453 14,500 -1,065 Descending Salt Lake Center
Fri 03:27:17 PM 41.1081 -112.1394 189° South 371 427 13,900 -1,000 Descending Salt Lake Center
Fri 03:27:40 PM 41.0689 -112.1431 184° South 346 398 13,500 -871 Descending Salt Lake Center
Fri 03:28:19 PM 41.0192 -112.1342 172° South 323 372 13,000 -1,082 Descending Salt Lake Center
Fri 03:28:41 PM 40.9819 -112.1269 172° South 313 360 12,400 -1,355 Descending Salt Lake Center
Fri 03:29:21 PM 40.9367 -112.1172 171° South 305 351 11,600 -1,377 Descending Salt Lake Center
Fri 03:29:42 PM 40.9008 -112.1089 170° South 300 345 11,000 -581 Descending Salt Lake Center
Fri 03:30:23 PM 40.8442 -112.1022 175° South 277 319 11,000  Level Salt Lake Center
Fri 03:30:43 PM 40.8219 -112.1017 179° South 255 293 11,000 -581 Level Salt Lake Center
Fri 03:31:25 PM 40.7769 -112.0953 174° South 246 283 10,400 -984 Descending Salt Lake Center
Fri 03:31:44 PM 40.7542 -112.0964 182° South 244 281 10,000 -1,475 Descending Salt Lake Center
Fri 03:32:26 PM 40.7128 -112.0881 171° South 234 269 8,900 -1,900 Descending Salt Lake Center
Fri 03:32:44 PM 40.6925 -112.0889 182° South 228 262 8,100 -2,226 Descending Salt Lake Center
Fri 03:33:28 PM 40.6522 -112.0658 157° South 240 276 6,600 -1,967 Descending Salt Lake Center
Fri 03:33:45 PM 40.6447 -112.0428 113° Southeast 229 264 6,100 -1,765 Descending Salt Lake Center

Login

Don't have an account? Register now (free) for customized features, flight alerts, and more!